CheckWX is a tool to help pilots better visualize weather data.  It is not intended as a substitute for an official pre-flight weather briefing.

18:29:37 UTC

TXKF METAR
L F Wade International Airport
Hamilton, Bermuda
Current

35 mins ago

TXKF 141755Z 16018KT 9999 FEW017 SCT030 SCT160 BKN300 23/20 Q1018
Observed
Dec-14 @ 17:55 UTC
Wind
  • 160° at 18 KTS
Visibility
10,000+ meters
Flight Rules
VFR
Cloud Levels
  • Few at 1,700' AGL
  • Scattered at 3,000' AGL
  • Scattered at 16,000' AGL
  • Broken at 30,000' AGL
Temperature
23°C / 73°F
Dewpoint
20°C / 68°F
Humidity
83%
Altimeter
30.06" Hg
Pressure
1017.92 hPa
Previous

2 hours ago

TXKF 141655Z 17018KT 9999 SCT018 SCT160 BKN300 23/20 Q1019
Observed
Dec-14 @ 16:55 UTC
Wind
  • 170° at 18 KTS
Visibility
10,000+ meters
Flight Rules
VFR
Cloud Levels
  • Scattered at 1,800' AGL
  • Scattered at 16,000' AGL
  • Broken at 30,000' AGL
Temperature
23°C / 73°F
Dewpoint
20°C / 68°F
Humidity
83%
Altimeter
30.09" Hg
Pressure
1018.92 hPa
Previous

3 hours ago

TXKF 141555Z 16019KT 9999 FEW015 FEW160 BKN300 23/19 Q1020
Observed
Dec-14 @ 15:55 UTC
Wind
  • 160° at 19 KTS
Visibility
10,000+ meters
Flight Rules
VFR
Cloud Levels
  • Few at 1,500' AGL
  • Few at 16,000' AGL
  • Broken at 30,000' AGL
Temperature
23°C / 73°F
Dewpoint
19°C / 66°F
Humidity
78%
Altimeter
30.12" Hg
Pressure
1019.92 hPa